createdAt,value
2019-04-24T00:01:24.447Z,46.50
2019-04-24T00:04:15.617Z,46.50
2019-04-24T00:09:07.853Z,45.70
2019-04-24T00:11:56.793Z,45.40
2019-04-24T00:14:50.688Z,45.30
2019-04-24T00:17:11.186Z,46.50
2019-04-24T00:19:32.091Z,45.50
2019-04-24T00:22:12.443Z,45.50
2019-04-24T00:24:37.498Z,45.70
2019-04-24T00:29:42.836Z,46.60
2019-04-24T00:34:32.857Z,45.80
2019-04-24T00:37:07.071Z,45.80
2019-04-24T00:39:34.830Z,45.60
2019-04-24T00:42:08.604Z,45.70
2019-04-24T00:44:26.368Z,45.60
2019-04-24T00:49:32.275Z,45.30
2019-04-24T00:51:56.244Z,45.20
2019-04-24T00:54:25.844Z,45.10
2019-04-24T00:56:59.146Z,45.10
2019-04-24T00:59:30.683Z,44.90
2019-04-24T01:02:23.830Z,44.60
2019-04-24T01:05:24.907Z,44.50
2019-04-24T01:10:46.208Z,44.50
2019-04-24T01:15:58.718Z,44.10
2019-04-24T01:18:27.615Z,44.70
2019-04-24T01:21:07.134Z,44.00
2019-04-24T01:28:19.173Z,44.30
2019-04-24T01:31:18.712Z,44.40
2019-04-24T01:33:33.483Z,44.40
2019-04-24T01:38:51.435Z,44.30
2019-04-24T01:43:51.666Z,44.40
2019-04-24T01:49:00.717Z,44.20
2019-04-24T01:51:19.050Z,44.20
2019-04-24T01:53:56.576Z,44.50
2019-04-24T01:56:18.296Z,44.70
2019-04-24T02:01:14.842Z,44.60
2019-04-24T02:03:50.577Z,44.20
2019-04-24T02:08:59.756Z,44.20
2019-04-24T02:14:07.758Z,44.20
2019-04-24T02:16:43.329Z,43.50
2019-04-24T02:18:49.664Z,43.80
2019-04-24T02:23:56.411Z,43.60
2019-04-24T02:29:07.036Z,43.10
2019-04-24T02:37:14.806Z,43.30
2019-04-24T02:40:03.595Z,43.60
2019-04-24T02:45:18.935Z,43.50
2019-04-24T02:47:45.923Z,43.70
2019-04-24T02:50:19.950Z,43.80
2019-04-24T02:52:49.619Z,43.90
2019-04-24T02:57:31.356Z,43.80
2019-04-24T03:00:11.842Z,44.00
2019-04-24T03:05:02.890Z,44.10
2019-04-24T03:10:18.496Z,44.20
2019-04-24T03:17:44.380Z,44.40
2019-04-24T03:20:37.580Z,44.60
2019-04-24T03:28:12.354Z,45.00
2019-04-24T03:36:10.371Z,45.10
2019-04-24T03:38:50.326Z,45.50
2019-04-24T03:51:50.168Z,45.60
2019-04-24T03:56:30.823Z,45.70
2019-04-24T04:07:04.654Z,46.40
2019-04-24T04:12:10.265Z,46.80
2019-04-24T04:22:06.591Z,45.90
2019-04-24T04:29:49.610Z,46.10
2019-04-24T04:37:40.316Z,46.00
2019-04-24T04:40:23.542Z,46.20
2019-04-24T04:42:58.481Z,46.20
2019-04-24T04:45:47.281Z,46.00
2019-04-24T04:47:51.224Z,46.20
2019-04-24T04:50:46.616Z,46.30
2019-04-24T04:58:33.021Z,46.60
2019-04-24T05:01:44.299Z,46.70
2019-04-24T05:04:05.294Z,46.40
2019-04-24T05:09:37.210Z,46.80
2019-04-24T05:11:24.898Z,47.40
2019-04-24T05:14:18.390Z,47.50
2019-04-24T05:21:38.698Z,48.00
2019-04-24T05:29:42.862Z,48.10
2019-04-24T05:32:05.101Z,48.80
2019-04-24T05:34:52.970Z,48.30
2019-04-24T05:42:36.838Z,47.20
2019-04-24T05:44:45.096Z,47.20
2019-04-24T05:47:44.011Z,47.30
2019-04-24T05:50:11.709Z,47.80
2019-04-24T05:52:47.248Z,47.50
2019-04-24T05:55:24.956Z,47.40
2019-04-24T06:02:56.806Z,47.80
2019-04-24T06:05:25.845Z,47.20
2019-04-24T06:08:20.305Z,47.80
2019-04-24T06:10:55.281Z,47.50
2019-04-24T06:16:20.893Z,47.00
2019-04-24T06:19:02.795Z,46.70
2019-04-24T06:21:23.029Z,46.30
2019-04-24T06:32:01.026Z,45.50
2019-04-24T06:40:07.423Z,44.70
2019-04-24T06:43:04.896Z,44.70
2019-04-24T06:45:28.036Z,44.40
2019-04-24T06:47:58.398Z,44.20
2019-04-24T06:50:53.837Z,43.30
2019-04-24T06:52:57.742Z,43.30
2019-04-24T06:55:31.337Z,43.00
2019-04-24T06:57:52.815Z,43.30
2019-04-24T07:03:14.765Z,41.80
2019-04-24T07:08:39.522Z,42.50
2019-04-24T07:11:20.855Z,42.40
2019-04-24T07:17:17.144Z,41.80
2019-04-24T07:24:41.698Z,41.50
2019-04-24T07:26:59.454Z,42.00
2019-04-24T07:29:45.429Z,42.40
2019-04-24T07:32:09.493Z,42.80
2019-04-24T07:34:48.417Z,42.40
2019-04-24T07:37:43.116Z,43.20
2019-04-24T07:39:49.909Z,42.30
2019-04-24T07:44:49.375Z,42.50
2019-04-24T07:47:14.798Z,42.50
2019-04-24T07:49:46.630Z,41.90
2019-04-24T07:52:53.747Z,41.60
2019-04-24T07:57:30.406Z,40.60
2019-04-24T08:00:06.512Z,40.30
2019-04-24T08:02:46.429Z,41.10
2019-04-24T08:07:44.163Z,40.40
2019-04-24T08:13:03.669Z,40.60
2019-04-24T08:23:14.826Z,41.20
2019-04-24T08:25:40.404Z,41.10
2019-04-24T08:28:06.717Z,40.20
2019-04-24T08:30:42.463Z,39.50
2019-04-24T08:33:14.980Z,39.30
2019-04-24T08:35:49.896Z,39.50
2019-04-24T08:38:33.175Z,38.90
2019-04-24T08:43:56.073Z,39.10
2019-04-24T08:46:42.338Z,37.80
2019-04-24T08:49:16.965Z,37.70
2019-04-24T08:54:13.094Z,37.70
2019-04-24T08:57:07.055Z,36.50
2019-04-24T08:59:54.432Z,36.90
2019-04-24T09:05:30.385Z,37.20
2019-04-24T09:15:33.108Z,35.90
2019-04-24T09:17:59.108Z,36.00
2019-04-24T09:20:25.561Z,36.50
2019-04-24T09:28:34.746Z,35.40
2019-04-24T09:30:54.218Z,35.90
2019-04-24T09:38:49.063Z,35.60
2019-04-24T09:51:25.059Z,37.00
2019-04-24T09:56:54.834Z,36.60
2019-04-24T10:02:03.171Z,36.00
2019-04-24T10:09:33.105Z,35.90
2019-04-24T10:12:17.867Z,36.20
2019-04-24T10:14:49.626Z,35.30
2019-04-24T10:20:01.925Z,35.50
2019-04-24T10:22:38.955Z,35.80
2019-04-24T10:30:38.104Z,35.10
2019-04-24T10:36:10.408Z,34.50
2019-04-24T10:38:51.194Z,35.00
2019-04-24T10:41:27.635Z,34.20
2019-04-24T10:44:27.007Z,34.20
2019-04-24T10:47:23.336Z,34.20
2019-04-24T10:50:00.892Z,33.50
2019-04-24T10:52:35.178Z,34.20
2019-04-24T10:57:33.421Z,33.50
2019-04-24T11:02:47.601Z,33.40
2019-04-24T11:05:33.363Z,33.50
2019-04-24T11:08:10.944Z,33.40
2019-04-24T11:10:47.504Z,32.50
2019-04-24T11:13:48.790Z,32.50
2019-04-24T11:19:19.951Z,32.40
2019-04-24T11:21:55.006Z,32.30
2019-04-24T11:24:40.777Z,32.60
2019-04-24T11:26:59.152Z,32.10
2019-04-24T11:29:34.321Z,31.50
2019-04-24T11:35:18.256Z,32.20
2019-04-24T11:38:17.288Z,30.90
2019-04-24T11:41:20.084Z,32.20
2019-04-24T11:43:29.593Z,32.40
2019-04-24T11:46:24.151Z,31.20
2019-04-24T11:49:05.444Z,31.40
2019-04-24T11:53:53.839Z,31.00
2019-04-24T11:59:18.661Z,30.20
2019-04-24T12:10:22.386Z,30.10
2019-04-24T12:13:09.892Z,30.20
2019-04-24T12:15:56.975Z,29.70
2019-04-24T12:18:14.914Z,30.70
2019-04-24T12:21:07.903Z,29.50
2019-04-24T12:23:38.988Z,29.60
2019-04-24T12:26:03.077Z,29.10
2019-04-24T12:30:58.021Z,29.10
2019-04-24T12:36:08.834Z,28.90
2019-04-24T12:38:45.694Z,28.80
2019-04-24T12:41:18.358Z,28.90
2019-04-24T12:44:02.033Z,28.70
2019-04-24T12:46:45.409Z,28.70
2019-04-24T12:48:55.207Z,28.80
2019-04-24T12:51:24.463Z,29.20
2019-04-24T12:54:06.455Z,28.40
2019-04-24T12:56:57.585Z,28.70
2019-04-24T13:02:13.108Z,28.50
2019-04-24T13:04:55.977Z,28.50
2019-04-24T13:07:25.882Z,28.50
2019-04-24T13:09:57.573Z,28.60
2019-04-24T13:12:54.679Z,28.00
2019-04-24T13:20:17.834Z,28.30
2019-04-24T13:22:49.315Z,27.50
2019-04-24T13:25:46.981Z,28.30
2019-04-24T13:28:52.326Z,27.80
2019-04-24T13:31:25.445Z,28.00
2019-04-24T13:33:48.116Z,28.40
2019-04-24T13:36:18.132Z,27.60
2019-04-24T13:38:52.843Z,27.50
2019-04-24T13:41:08.161Z,27.30
2019-04-24T13:44:00.130Z,27.00
2019-04-24T13:46:06.392Z,27.30
2019-04-24T13:51:08.463Z,26.80
2019-04-24T13:53:48.075Z,26.90
2019-04-24T13:56:04.619Z,27.20
2019-04-24T13:58:43.403Z,27.30
2019-04-24T14:01:36.596Z,27.80
2019-04-24T14:04:08.904Z,28.20
2019-04-24T14:12:38.191Z,27.50
2019-04-24T14:14:13.697Z,26.80
2019-04-24T14:16:38.646Z,26.70
2019-04-24T14:19:47.576Z,26.70
2019-04-24T14:21:56.197Z,27.50
2019-04-24T14:24:28.226Z,27.70
2019-04-24T14:29:28.163Z,26.60
2019-04-24T14:32:00.833Z,26.50
2019-04-24T14:34:22.961Z,25.60
2019-04-24T14:36:55.720Z,25.90
2019-04-24T14:41:55.391Z,25.00
2019-04-24T14:47:29.204Z,23.70
2019-04-24T14:52:33.899Z,23.70
2019-04-24T14:55:02.767Z,24.10
2019-04-24T14:57:22.258Z,24.50
2019-04-24T15:00:01.607Z,24.70
2019-04-24T15:02:28.164Z,24.00
2019-04-24T15:04:56.143Z,23.40
2019-04-24T15:07:27.873Z,24.10
2019-04-24T15:09:56.719Z,24.60
2019-04-24T15:12:26.573Z,25.20
2019-04-24T15:14:59.510Z,24.70
2019-04-24T15:17:54.059Z,24.90
2019-04-24T15:20:15.637Z,25.70
2019-04-24T15:22:45.134Z,26.90
2019-04-24T15:25:23.570Z,26.50
2019-04-24T15:28:01.151Z,26.90
2019-04-24T15:30:10.945Z,27.00
2019-04-24T15:32:43.201Z,27.10
2019-04-24T15:37:54.786Z,27.30
2019-04-24T15:40:25.090Z,27.40
2019-04-24T15:42:35.927Z,28.00
2019-04-24T15:45:05.586Z,28.00
2019-04-24T15:47:48.068Z,28.30
2019-04-24T15:52:04.598Z,29.00
2019-04-24T15:54:31.792Z,29.20
2019-04-24T15:56:59.991Z,29.00
2019-04-24T15:59:51.745Z,30.20
2019-04-24T16:02:41.421Z,29.70
2019-04-24T16:04:53.404Z,30.20
2019-04-24T16:07:21.482Z,30.00
2019-04-24T16:09:52.300Z,30.10
2019-04-24T16:12:19.688Z,30.10
2019-04-24T16:15:31.346Z,30.60
2019-04-24T16:17:52.661Z,30.70
2019-04-24T16:20:10.557Z,30.80
2019-04-24T16:22:47.464Z,31.20
2019-04-24T16:27:53.295Z,31.30
2019-04-24T16:37:43.881Z,31.10
2019-04-24T16:45:28.332Z,31.40
2019-04-24T16:50:34.159Z,31.80
2019-04-24T16:53:03.302Z,31.80
2019-04-24T16:55:30.034Z,31.60
2019-04-24T16:58:07.856Z,31.80
2019-04-24T17:00:34.712Z,32.00
2019-04-24T17:03:02.754Z,31.80
2019-04-24T17:05:29.192Z,31.90
2019-04-24T17:08:04.259Z,31.60
2019-04-24T17:10:19.226Z,31.80
2019-04-24T17:12:49.177Z,31.90
2019-04-24T17:15:21.531Z,31.90
2019-04-24T17:17:57.599Z,31.70
2019-04-24T17:23:06.483Z,32.20
2019-04-24T17:25:29.938Z,31.50
2019-04-24T17:28:01.105Z,31.50
2019-04-24T17:30:36.277Z,32.00
2019-04-24T17:33:01.070Z,32.50
2019-04-24T17:35:28.668Z,32.20
2019-04-24T17:37:28.328Z,32.20
2019-04-24T17:40:04.369Z,32.60
2019-04-24T17:42:50.204Z,32.50
2019-04-24T17:45:30.127Z,32.50
2019-04-24T17:48:07.134Z,32.90
2019-04-24T17:50:25.128Z,33.00
2019-04-24T17:55:23.077Z,32.90
2019-04-24T17:59:56.567Z,33.40
2019-04-24T18:02:24.955Z,33.20
2019-04-24T18:04:52.344Z,33.20
2019-04-24T18:07:21.614Z,33.20
2019-04-24T18:09:49.477Z,33.10
2019-04-24T18:12:16.976Z,33.60
2019-04-24T18:14:44.370Z,33.30
2019-04-24T18:17:12.998Z,33.20
2019-04-24T18:19:42.079Z,33.20
2019-04-24T18:22:09.615Z,33.20
2019-04-24T18:25:08.899Z,33.50
2019-04-24T18:27:56.015Z,33.30
2019-04-24T18:30:26.808Z,33.50
2019-04-24T18:32:54.214Z,33.20
2019-04-24T18:35:21.773Z,33.60
2019-04-24T18:37:49.377Z,33.60
2019-04-24T18:40:16.782Z,33.80
2019-04-24T18:42:44.199Z,33.90
2019-04-24T18:45:13.006Z,33.90
2019-04-24T18:47:41.192Z,33.90
2019-04-24T18:50:09.365Z,33.70
2019-04-24T18:52:48.958Z,33.60
2019-04-24T18:55:07.209Z,33.80
2019-04-24T18:57:34.739Z,33.90
2019-04-24T19:00:04.230Z,33.70
2019-04-24T19:02:32.338Z,34.00
2019-04-24T19:05:00.031Z,33.80
2019-04-24T19:07:27.842Z,33.70
2019-04-24T19:09:55.335Z,33.90
2019-04-24T19:12:23.012Z,33.90
2019-04-24T19:14:51.989Z,34.00
2019-04-24T19:17:21.493Z,34.30
2019-04-24T19:19:48.991Z,34.60
2019-04-24T19:22:16.779Z,35.30
2019-04-24T19:24:44.197Z,35.20
2019-04-24T19:27:11.602Z,35.90
2019-04-24T19:29:39.122Z,35.90
2019-04-24T19:32:08.312Z,36.00
2019-04-24T19:34:36.595Z,36.20
2019-04-24T19:37:04.123Z,36.30
2019-04-24T19:39:32.119Z,36.80
2019-04-24T19:41:59.668Z,36.90
2019-04-24T19:44:27.203Z,37.20
2019-04-24T19:46:54.615Z,37.00
2019-04-24T19:49:26.063Z,36.70
2019-04-24T19:51:53.419Z,36.90
2019-04-24T19:54:21.972Z,36.70
2019-04-24T19:56:50.895Z,36.70
2019-04-24T19:59:18.868Z,36.90
2019-04-24T20:01:46.575Z,37.00
2019-04-24T20:04:14.359Z,37.20
2019-04-24T20:06:42.063Z,37.20
2019-04-24T20:09:26.611Z,37.80
2019-04-24T20:11:55.322Z,37.80
2019-04-24T20:14:23.198Z,37.60
2019-04-24T20:16:51.664Z,38.10
2019-04-24T20:19:20.381Z,38.50
2019-04-24T20:21:48.767Z,38.30
2019-04-24T20:24:16.178Z,38.10
2019-04-24T20:26:43.655Z,39.30
2019-04-24T20:29:11.192Z,38.30
2019-04-24T20:31:38.853Z,38.60
2019-04-24T20:34:06.402Z,38.90
2019-04-24T20:36:33.794Z,39.30
2019-04-24T20:39:02.088Z,40.80
2019-04-24T20:41:31.156Z,39.30
2019-04-24T20:43:58.943Z,39.40
2019-04-24T20:46:26.351Z,39.40
2019-04-24T20:48:53.903Z,40.00
2019-04-24T20:51:22.424Z,39.30
2019-04-24T20:53:51.656Z,39.90
2019-04-24T20:56:19.362Z,39.90
2019-04-24T20:58:46.771Z,39.80
2019-04-24T21:01:15.337Z,40.70
2019-04-24T21:03:42.795Z,40.70
2019-04-24T21:06:38.735Z,40.30
2019-04-24T21:09:31.850Z,40.90
2019-04-24T21:12:01.777Z,40.40
2019-04-24T21:14:29.353Z,40.50
2019-04-24T21:16:56.811Z,40.60
2019-04-24T21:19:25.068Z,41.00
2019-04-24T21:21:53.256Z,40.70
2019-04-24T21:24:24.420Z,42.30
2019-04-24T21:26:51.259Z,41.50
2019-04-24T21:29:20.889Z,41.10
2019-04-24T21:31:49.938Z,41.30
2019-04-24T21:34:17.399Z,40.90
2019-04-24T21:36:46.606Z,41.30
2019-04-24T21:39:14.279Z,41.80
2019-04-24T21:41:41.659Z,42.00
2019-04-24T21:44:09.047Z,42.20
2019-04-24T21:46:36.693Z,42.20
2019-04-24T21:49:04.087Z,42.40
2019-04-24T21:51:31.471Z,43.20
2019-04-24T21:54:04.540Z,42.40
2019-04-24T21:56:29.050Z,42.70
2019-04-24T21:58:56.511Z,42.70
2019-04-24T22:02:05.512Z,42.30
2019-04-24T22:04:38.938Z,43.10
2019-04-24T22:07:18.751Z,43.20
2019-04-24T22:09:46.655Z,43.30
2019-04-24T22:12:14.151Z,43.90
2019-04-24T22:14:42.140Z,43.70
2019-04-24T22:17:09.524Z,44.20
2019-04-24T22:19:37.343Z,44.10
2019-04-24T22:22:11.415Z,45.60
2019-04-24T22:24:58.339Z,44.50
2019-04-24T22:27:35.111Z,45.00
2019-04-24T22:30:07.627Z,44.70
2019-04-24T22:32:36.993Z,44.80
2019-04-24T22:35:14.503Z,44.60
2019-04-24T22:37:41.895Z,44.30
2019-04-24T22:40:27.823Z,45.00
2019-04-24T22:42:55.426Z,44.90
2019-04-24T22:45:23.220Z,45.30
2019-04-24T22:47:52.117Z,45.10
2019-04-24T22:50:19.634Z,45.40
2019-04-24T22:52:47.038Z,45.10
2019-04-24T22:55:15.980Z,45.20
2019-04-24T22:57:43.627Z,45.30
2019-04-24T23:00:17.831Z,45.10
2019-04-24T23:02:45.401Z,45.40
2019-04-24T23:05:13.504Z,46.10
2019-04-24T23:07:40.902Z,46.10
2019-04-24T23:10:09.223Z,46.40
2019-04-24T23:12:36.811Z,46.60
2019-04-24T23:15:05.039Z,46.60
2019-04-24T23:17:34.117Z,47.20
2019-04-24T23:20:01.731Z,47.60
2019-04-24T23:22:43.215Z,47.00
2019-04-24T23:25:32.105Z,47.20
2019-04-24T23:28:22.612Z,47.40
2019-04-24T23:31:08.621Z,47.90
2019-04-24T23:33:41.982Z,48.20
2019-04-24T23:36:12.388Z,47.70
2019-04-24T23:38:40.304Z,48.00
2019-04-24T23:41:10.961Z,48.50
2019-04-24T23:43:38.345Z,47.80
2019-04-24T23:46:05.764Z,47.90
2019-04-24T23:48:33.492Z,47.90
2019-04-24T23:51:01.883Z,48.50
2019-04-24T23:53:29.383Z,48.30
2019-04-24T23:55:56.895Z,48.20
2019-04-24T23:58:24.291Z,48.60
